sensor_id;sensor_type;location;lat;lon;timestamp;P1;durP1;ratioP1;P2;durP2;ratioP2
68976;SDS011;56029;52.568;13.588;2022-10-30T00:00:00;40.93;;;27.97;;
68976;SDS011;56029;52.568;13.588;2022-10-30T00:02:25;41.53;;;28.43;;
68976;SDS011;56029;52.568;13.588;2022-10-30T00:04:51;41.20;;;28.03;;
68976;SDS011;56029;52.568;13.588;2022-10-30T00:07:16;38.00;;;26.33;;
68976;SDS011;56029;52.568;13.588;2022-10-30T00:09:42;36.90;;;25.43;;
68976;SDS011;56029;52.568;13.588;2022-10-30T00:12:07;36.83;;;25.77;;
68976;SDS011;56029;52.568;13.588;2022-10-30T00:14:32;34.70;;;24.88;;
68976;SDS011;56029;52.568;13.588;2022-10-30T00:16:58;35.70;;;25.87;;
68976;SDS011;56029;52.568;13.588;2022-10-30T00:19:27;38.70;;;26.50;;
68976;SDS011;56029;52.568;13.588;2022-10-30T00:21:52;39.90;;;26.88;;
68976;SDS011;56029;52.568;13.588;2022-10-30T00:24:18;37.65;;;26.23;;
68976;SDS011;56029;52.568;13.588;2022-10-30T00:26:44;36.17;;;25.07;;
68976;SDS011;56029;52.568;13.588;2022-10-30T00:29:09;37.70;;;25.67;;
68976;SDS011;56029;52.568;13.588;2022-10-30T00:31:35;37.78;;;25.25;;
68976;SDS011;56029;52.568;13.588;2022-10-30T00:34:00;37.13;;;25.40;;
68976;SDS011;56029;52.568;13.588;2022-10-30T00:36:26;37.77;;;25.17;;
68976;SDS011;56029;52.568;13.588;2022-10-30T00:38:51;40.97;;;28.30;;
68976;SDS011;56029;52.568;13.588;2022-10-30T00:41:18;39.33;;;26.73;;
68976;SDS011;56029;52.568;13.588;2022-10-30T00:43:48;38.63;;;26.40;;
68976;SDS011;56029;52.568;13.588;2022-10-30T00:46:17;41.40;;;26.50;;
68976;SDS011;56029;52.568;13.588;2022-10-30T00:51:34;39.97;;;27.05;;
68976;SDS011;56029;52.568;13.588;2022-10-30T00:54:03;39.17;;;26.33;;
68976;SDS011;56029;52.568;13.588;2022-10-30T00:56:30;41.45;;;27.42;;
68976;SDS011;56029;52.568;13.588;2022-10-30T00:58:57;37.35;;;26.27;;
68976;SDS011;56029;52.568;13.588;2022-10-30T01:01:25;37.67;;;26.63;;
68976;SDS011;56029;52.568;13.588;2022-10-30T01:03:56;40.13;;;26.58;;
68976;SDS011;56029;52.568;13.588;2022-10-30T01:06:24;41.30;;;27.67;;
68976;SDS011;56029;52.568;13.588;2022-10-30T01:08:51;40.20;;;28.02;;
68976;SDS011;56029;52.568;13.588;2022-10-30T01:11:19;43.35;;;29.17;;
68976;SDS011;56029;52.568;13.588;2022-10-30T01:13:45;43.83;;;29.40;;
68976;SDS011;56029;52.568;13.588;2022-10-30T01:30:28;45.40;;;30.53;;
68976;SDS011;56029;52.568;13.588;2022-10-30T01:35:48;44.42;;;28.98;;
68976;SDS011;56029;52.568;13.588;2022-10-30T01:38:22;41.83;;;28.10;;
68976;SDS011;56029;52.568;13.588;2022-10-30T01:40:53;39.92;;;27.83;;
68976;SDS011;56029;52.568;13.588;2022-10-30T01:43:19;42.67;;;27.27;;
68976;SDS011;56029;52.568;13.588;2022-10-30T01:48:29;44.78;;;26.67;;
68976;SDS011;56029;52.568;13.588;2022-10-30T01:51:11;37.17;;;25.00;;
68976;SDS011;56029;52.568;13.588;2022-10-30T02:01:37;40.35;;;25.52;;
68976;SDS011;56029;52.568;13.588;2022-10-30T02:04:04;35.05;;;23.90;;
68976;SDS011;56029;52.568;13.588;2022-10-30T02:06:32;39.25;;;24.70;;
68976;SDS011;56029;52.568;13.588;2022-10-30T02:08:57;35.80;;;23.93;;
68976;SDS011;56029;52.568;13.588;2022-10-30T02:11:23;37.03;;;23.80;;
68976;SDS011;56029;52.568;13.588;2022-10-30T02:13:50;36.78;;;23.85;;
68976;SDS011;56029;52.568;13.588;2022-10-30T02:16:19;34.88;;;23.13;;
68976;SDS011;56029;52.568;13.588;2022-10-30T02:18:45;33.33;;;23.52;;
68976;SDS011;56029;52.568;13.588;2022-10-30T02:21:10;32.83;;;23.63;;
68976;SDS011;56029;52.568;13.588;2022-10-30T02:23:36;33.90;;;23.20;;
68976;SDS011;56029;52.568;13.588;2022-10-30T02:26:01;34.40;;;22.40;;
68976;SDS011;56029;52.568;13.588;2022-10-30T02:28:27;34.10;;;23.47;;
68976;SDS011;56029;52.568;13.588;2022-10-30T02:30:53;32.22;;;21.85;;
68976;SDS011;56029;52.568;13.588;2022-10-30T02:33:19;32.53;;;21.50;;
68976;SDS011;56029;52.568;13.588;2022-10-30T02:35:44;30.47;;;21.37;;
68976;SDS011;56029;52.568;13.588;2022-10-30T02:38:09;29.92;;;20.38;;
68976;SDS011;56029;52.568;13.588;2022-10-30T02:40:35;31.07;;;20.70;;
68976;SDS011;56029;52.568;13.588;2022-10-30T02:43:00;30.60;;;20.67;;
68976;SDS011;56029;52.568;13.588;2022-10-30T02:45:26;30.75;;;21.40;;
68976;SDS011;56029;52.568;13.588;2022-10-30T02:47:52;28.87;;;20.10;;
68976;SDS011;56029;52.568;13.588;2022-10-30T02:50:17;34.87;;;21.40;;
68976;SDS011;56029;52.568;13.588;2022-10-30T02:52:43;32.92;;;21.90;;
68976;SDS011;56029;52.568;13.588;2022-10-30T02:55:08;34.67;;;22.50;;
68976;SDS011;56029;52.568;13.588;2022-10-30T02:57:34;33.17;;;22.13;;
68976;SDS011;56029;52.568;13.588;2022-10-30T02:59:59;32.05;;;22.05;;
68976;SDS011;56029;52.568;13.588;2022-10-30T03:02:26;34.63;;;22.45;;
68976;SDS011;56029;52.568;13.588;2022-10-30T03:04:51;32.87;;;21.23;;
68976;SDS011;56029;52.568;13.588;2022-10-30T03:07:16;31.17;;;20.70;;
68976;SDS011;56029;52.568;13.588;2022-10-30T03:09:42;31.02;;;20.30;;
68976;SDS011;56029;52.568;13.588;2022-10-30T03:12:08;31.77;;;20.83;;
68976;SDS011;56029;52.568;13.588;2022-10-30T03:14:33;32.23;;;21.23;;
68976;SDS011;56029;52.568;13.588;2022-10-30T03:16:59;32.67;;;20.40;;
68976;SDS011;56029;52.568;13.588;2022-10-30T03:19:24;28.13;;;19.33;;
68976;SDS011;56029;52.568;13.588;2022-10-30T03:21:49;28.90;;;20.10;;
68976;SDS011;56029;52.568;13.588;2022-10-30T03:24:15;29.47;;;19.73;;
68976;SDS011;56029;52.568;13.588;2022-10-30T03:26:40;27.77;;;19.35;;
68976;SDS011;56029;52.568;13.588;2022-10-30T03:29:06;25.67;;;18.30;;
68976;SDS011;56029;52.568;13.588;2022-10-30T03:31:32;24.70;;;17.75;;
68976;SDS011;56029;52.568;13.588;2022-10-30T03:33:58;26.30;;;18.80;;
68976;SDS011;56029;52.568;13.588;2022-10-30T03:36:24;28.70;;;19.60;;
68976;SDS011;56029;52.568;13.588;2022-10-30T03:38:50;30.52;;;19.55;;
68976;SDS011;56029;52.568;13.588;2022-10-30T03:41:15;35.20;;;21.67;;
68976;SDS011;56029;52.568;13.588;2022-10-30T03:43:41;35.35;;;21.13;;
68976;SDS011;56029;52.568;13.588;2022-10-30T03:46:07;37.97;;;21.10;;
68976;SDS011;56029;52.568;13.588;2022-10-30T03:48:33;35.85;;;20.98;;
68976;SDS011;56029;52.568;13.588;2022-10-30T03:50:59;37.43;;;20.60;;
68976;SDS011;56029;52.568;13.588;2022-10-30T03:53:25;39.33;;;22.75;;
68976;SDS011;56029;52.568;13.588;2022-10-30T03:55:56;39.22;;;22.23;;
68976;SDS011;56029;52.568;13.588;2022-10-30T03:58:23;36.97;;;21.20;;
68976;SDS011;56029;52.568;13.588;2022-10-30T04:00:49;39.30;;;22.02;;
68976;SDS011;56029;52.568;13.588;2022-10-30T04:03:14;39.03;;;22.23;;
68976;SDS011;56029;52.568;13.588;2022-10-30T04:05:40;37.10;;;22.27;;
68976;SDS011;56029;52.568;13.588;2022-10-30T04:08:06;36.53;;;21.63;;
68976;SDS011;56029;52.568;13.588;2022-10-30T04:10:36;36.27;;;22.17;;
68976;SDS011;56029;52.568;13.588;2022-10-30T04:13:03;33.42;;;20.88;;
68976;SDS011;56029;52.568;13.588;2022-10-30T04:15:30;36.15;;;20.73;;
68976;SDS011;56029;52.568;13.588;2022-10-30T04:17:56;33.83;;;20.13;;
68976;SDS011;56029;52.568;13.588;2022-10-30T04:20:22;34.53;;;20.47;;
68976;SDS011;56029;52.568;13.588;2022-10-30T04:22:48;35.75;;;21.10;;
68976;SDS011;56029;52.568;13.588;2022-10-30T04:25:20;36.05;;;20.25;;
68976;SDS011;56029;52.568;13.588;2022-10-30T04:27:45;34.27;;;20.27;;
68976;SDS011;56029;52.568;13.588;2022-10-30T04:30:11;34.87;;;21.03;;
68976;SDS011;56029;52.568;13.588;2022-10-30T04:32:47;32.90;;;19.67;;
68976;SDS011;56029;52.568;13.588;2022-10-30T04:35:14;30.13;;;18.67;;
68976;SDS011;56029;52.568;13.588;2022-10-30T04:37:41;30.85;;;19.00;;
68976;SDS011;56029;52.568;13.588;2022-10-30T04:40:07;30.65;;;18.55;;
68976;SDS011;56029;52.568;13.588;2022-10-30T04:42:33;32.23;;;18.70;;
68976;SDS011;56029;52.568;13.588;2022-10-30T04:44:59;30.88;;;17.98;;
68976;SDS011;56029;52.568;13.588;2022-10-30T04:47:27;29.63;;;18.45;;
68976;SDS011;56029;52.568;13.588;2022-10-30T04:49:53;28.63;;;17.95;;
68976;SDS011;56029;52.568;13.588;2022-10-30T04:52:19;28.23;;;18.83;;
68976;SDS011;56029;52.568;13.588;2022-10-30T04:54:44;28.03;;;18.43;;
68976;SDS011;56029;52.568;13.588;2022-10-30T04:57:10;30.05;;;18.25;;
68976;SDS011;56029;52.568;13.588;2022-10-30T04:59:36;27.50;;;18.13;;
68976;SDS011;56029;52.568;13.588;2022-10-30T05:02:01;30.83;;;18.57;;
68976;SDS011;56029;52.568;13.588;2022-10-30T05:04:27;27.55;;;17.50;;
68976;SDS011;56029;52.568;13.588;2022-10-30T05:06:52;29.57;;;18.57;;
68976;SDS011;56029;52.568;13.588;2022-10-30T05:09:18;32.63;;;20.50;;
68976;SDS011;56029;52.568;13.588;2022-10-30T05:11:43;31.57;;;19.90;;
68976;SDS011;56029;52.568;13.588;2022-10-30T05:14:09;30.53;;;20.10;;
68976;SDS011;56029;52.568;13.588;2022-10-30T05:16:34;32.90;;;20.07;;
68976;SDS011;56029;52.568;13.588;2022-10-30T05:18:59;32.07;;;18.57;;
68976;SDS011;56029;52.568;13.588;2022-10-30T05:21:25;30.17;;;19.10;;
68976;SDS011;56029;52.568;13.588;2022-10-30T05:23:50;30.37;;;19.87;;
68976;SDS011;56029;52.568;13.588;2022-10-30T05:26:16;30.27;;;19.83;;
68976;SDS011;56029;52.568;13.588;2022-10-30T05:28:41;29.53;;;18.80;;
68976;SDS011;56029;52.568;13.588;2022-10-30T05:33:34;28.25;;;18.75;;
68976;SDS011;56029;52.568;13.588;2022-10-30T05:36:00;28.67;;;19.03;;
68976;SDS011;56029;52.568;13.588;2022-10-30T05:38:25;34.57;;;19.27;;
68976;SDS011;56029;52.568;13.588;2022-10-30T05:40:51;34.10;;;19.60;;
68976;SDS011;56029;52.568;13.588;2022-10-30T05:43:16;31.70;;;18.70;;
68976;SDS011;56029;52.568;13.588;2022-10-30T05:45:43;31.25;;;19.67;;
68976;SDS011;56029;52.568;13.588;2022-10-30T05:48:08;33.90;;;19.27;;
68976;SDS011;56029;52.568;13.588;2022-10-30T05:50:34;31.37;;;18.33;;
68976;SDS011;56029;52.568;13.588;2022-10-30T05:53:00;30.02;;;19.17;;
68976;SDS011;56029;52.568;13.588;2022-10-30T05:55:27;29.13;;;18.07;;
68976;SDS011;56029;52.568;13.588;2022-10-30T05:57:56;30.13;;;19.10;;
68976;SDS011;56029;52.568;13.588;2022-10-30T06:00:23;32.00;;;19.73;;
68976;SDS011;56029;52.568;13.588;2022-10-30T06:02:49;31.58;;;18.38;;
68976;SDS011;56029;52.568;13.588;2022-10-30T06:05:14;32.13;;;19.53;;
68976;SDS011;56029;52.568;13.588;2022-10-30T06:07:40;32.70;;;19.45;;
68976;SDS011;56029;52.568;13.588;2022-10-30T06:10:05;33.43;;;19.80;;
68976;SDS011;56029;52.568;13.588;2022-10-30T06:12:31;32.20;;;19.50;;
68976;SDS011;56029;52.568;13.588;2022-10-30T06:14:57;31.15;;;18.55;;
68976;SDS011;56029;52.568;13.588;2022-10-30T06:17:22;31.90;;;19.30;;
68976;SDS011;56029;52.568;13.588;2022-10-30T06:19:48;34.63;;;19.73;;
68976;SDS011;56029;52.568;13.588;2022-10-30T06:22:13;32.60;;;19.65;;
68976;SDS011;56029;52.568;13.588;2022-10-30T06:24:39;33.73;;;19.47;;
68976;SDS011;56029;52.568;13.588;2022-10-30T06:27:04;36.83;;;23.97;;
68976;SDS011;56029;52.568;13.588;2022-10-30T06:29:29;32.70;;;20.10;;
68976;SDS011;56029;52.568;13.588;2022-10-30T06:31:55;30.60;;;18.55;;
68976;SDS011;56029;52.568;13.588;2022-10-30T06:34:20;29.87;;;18.43;;
68976;SDS011;56029;52.568;13.588;2022-10-30T06:36:46;31.27;;;19.20;;
68976;SDS011;56029;52.568;13.588;2022-10-30T06:39:11;30.50;;;19.80;;
68976;SDS011;56029;52.568;13.588;2022-10-30T06:41:37;31.50;;;18.90;;
68976;SDS011;56029;52.568;13.588;2022-10-30T06:44:02;30.40;;;18.43;;
68976;SDS011;56029;52.568;13.588;2022-10-30T06:46:28;30.23;;;18.87;;
68976;SDS011;56029;52.568;13.588;2022-10-30T06:48:54;30.75;;;17.85;;
68976;SDS011;56029;52.568;13.588;2022-10-30T06:51:19;29.83;;;17.87;;
68976;SDS011;56029;52.568;13.588;2022-10-30T06:53:45;29.48;;;17.92;;
68976;SDS011;56029;52.568;13.588;2022-10-30T06:56:10;28.57;;;16.93;;
68976;SDS011;56029;52.568;13.588;2022-10-30T06:58:36;28.07;;;17.60;;
68976;SDS011;56029;52.568;13.588;2022-10-30T07:01:04;31.38;;;17.80;;
68976;SDS011;56029;52.568;13.588;2022-10-30T07:03:30;28.92;;;18.00;;
68976;SDS011;56029;52.568;13.588;2022-10-30T07:05:56;29.35;;;17.85;;
68976;SDS011;56029;52.568;13.588;2022-10-30T07:08:22;27.77;;;17.40;;
68976;SDS011;56029;52.568;13.588;2022-10-30T07:10:47;28.10;;;16.67;;
68976;SDS011;56029;52.568;13.588;2022-10-30T07:13:13;30.47;;;17.37;;
68976;SDS011;56029;52.568;13.588;2022-10-30T07:15:38;30.70;;;17.27;;
68976;SDS011;56029;52.568;13.588;2022-10-30T07:18:04;32.33;;;17.53;;
68976;SDS011;56029;52.568;13.588;2022-10-30T07:20:30;29.33;;;18.50;;
68976;SDS011;56029;52.568;13.588;2022-10-30T07:22:58;29.67;;;17.47;;
68976;SDS011;56029;52.568;13.588;2022-10-30T07:25:24;28.50;;;17.60;;
68976;SDS011;56029;52.568;13.588;2022-10-30T07:27:51;30.52;;;17.58;;
68976;SDS011;56029;52.568;13.588;2022-10-30T07:30:20;29.85;;;17.73;;
68976;SDS011;56029;52.568;13.588;2022-10-30T07:32:57;27.83;;;17.00;;
68976;SDS011;56029;52.568;13.588;2022-10-30T07:35:24;29.73;;;17.77;;
68976;SDS011;56029;52.568;13.588;2022-10-30T07:37:49;28.57;;;16.77;;
68976;SDS011;56029;52.568;13.588;2022-10-30T07:40:15;30.07;;;16.20;;
68976;SDS011;56029;52.568;13.588;2022-10-30T07:42:41;27.35;;;17.95;;
68976;SDS011;56029;52.568;13.588;2022-10-30T07:45:07;29.17;;;17.67;;
68976;SDS011;56029;52.568;13.588;2022-10-30T07:47:37;29.30;;;17.15;;
68976;SDS011;56029;52.568;13.588;2022-10-30T07:50:03;28.50;;;17.75;;
68976;SDS011;56029;52.568;13.588;2022-10-30T07:52:30;28.03;;;17.07;;
68976;SDS011;56029;52.568;13.588;2022-10-30T07:54:56;26.35;;;17.05;;
68976;SDS011;56029;52.568;13.588;2022-10-30T07:57:22;28.23;;;16.47;;
68976;SDS011;56029;52.568;13.588;2022-10-30T07:59:47;28.73;;;16.50;;
68976;SDS011;56029;52.568;13.588;2022-10-30T08:02:13;26.97;;;16.63;;
68976;SDS011;56029;52.568;13.588;2022-10-30T08:04:38;25.47;;;16.40;;
68976;SDS011;56029;52.568;13.588;2022-10-30T08:07:03;27.70;;;16.53;;
68976;SDS011;56029;52.568;13.588;2022-10-30T08:09:29;26.90;;;15.95;;
68976;SDS011;56029;52.568;13.588;2022-10-30T08:11:54;26.17;;;16.53;;
68976;SDS011;56029;52.568;13.588;2022-10-30T08:14:20;28.23;;;16.03;;
68976;SDS011;56029;52.568;13.588;2022-10-30T08:16:45;24.23;;;15.48;;
68976;SDS011;56029;52.568;13.588;2022-10-30T08:19:11;24.57;;;15.70;;
68976;SDS011;56029;52.568;13.588;2022-10-30T08:21:37;28.58;;;15.85;;
68976;SDS011;56029;52.568;13.588;2022-10-30T08:24:02;24.93;;;14.97;;
68976;SDS011;56029;52.568;13.588;2022-10-30T08:26:28;24.00;;;15.27;;
68976;SDS011;56029;52.568;13.588;2022-10-30T08:28:53;24.67;;;14.98;;
68976;SDS011;56029;52.568;13.588;2022-10-30T08:31:19;24.03;;;14.10;;
68976;SDS011;56029;52.568;13.588;2022-10-30T08:33:44;24.17;;;13.97;;
68976;SDS011;56029;52.568;13.588;2022-10-30T08:36:10;27.05;;;13.85;;
68976;SDS011;56029;52.568;13.588;2022-10-30T08:38:35;21.83;;;13.73;;
68976;SDS011;56029;52.568;13.588;2022-10-30T08:41:01;25.47;;;13.23;;
68976;SDS011;56029;52.568;13.588;2022-10-30T08:43:28;24.65;;;13.02;;
68976;SDS011;56029;52.568;13.588;2022-10-30T08:45:56;24.63;;;13.37;;
68976;SDS011;56029;52.568;13.588;2022-10-30T08:48:22;20.90;;;13.23;;
68976;SDS011;56029;52.568;13.588;2022-10-30T08:50:48;21.95;;;13.38;;
68976;SDS011;56029;52.568;13.588;2022-10-30T08:53:14;24.47;;;13.40;;
68976;SDS011;56029;52.568;13.588;2022-10-30T08:55:39;22.05;;;12.60;;
68976;SDS011;56029;52.568;13.588;2022-10-30T08:58:05;22.02;;;13.02;;
68976;SDS011;56029;52.568;13.588;2022-10-30T09:00:31;22.37;;;13.60;;
68976;SDS011;56029;52.568;13.588;2022-10-30T09:02:57;23.70;;;13.25;;
68976;SDS011;56029;52.568;13.588;2022-10-30T09:05:23;21.37;;;13.03;;
68976;SDS011;56029;52.568;13.588;2022-10-30T09:07:48;20.85;;;12.80;;
68976;SDS011;56029;52.568;13.588;2022-10-30T09:10:14;24.10;;;12.70;;
68976;SDS011;56029;52.568;13.588;2022-10-30T09:12:40;21.98;;;13.10;;
68976;SDS011;56029;52.568;13.588;2022-10-30T09:15:05;22.90;;;12.70;;
68976;SDS011;56029;52.568;13.588;2022-10-30T09:17:32;23.90;;;12.73;;
68976;SDS011;56029;52.568;13.588;2022-10-30T09:19:57;20.90;;;12.77;;
68976;SDS011;56029;52.568;13.588;2022-10-30T09:22:23;21.07;;;12.60;;
68976;SDS011;56029;52.568;13.588;2022-10-30T09:24:48;19.73;;;12.65;;
68976;SDS011;56029;52.568;13.588;2022-10-30T09:27:14;23.67;;;13.97;;
68976;SDS011;56029;52.568;13.588;2022-10-30T09:29:39;21.03;;;12.40;;
68976;SDS011;56029;52.568;13.588;2022-10-30T09:32:05;20.80;;;12.25;;
68976;SDS011;56029;52.568;13.588;2022-10-30T09:34:34;22.33;;;12.67;;
68976;SDS011;56029;52.568;13.588;2022-10-30T09:37:00;21.63;;;12.48;;
68976;SDS011;56029;52.568;13.588;2022-10-30T09:39:26;23.02;;;13.10;;
68976;SDS011;56029;52.568;13.588;2022-10-30T09:42:14;21.20;;;12.63;;
68976;SDS011;56029;52.568;13.588;2022-10-30T09:47:34;21.02;;;11.95;;
68976;SDS011;56029;52.568;13.588;2022-10-30T09:50:29;24.33;;;13.02;;
68976;SDS011;56029;52.568;13.588;2022-10-30T09:53:04;19.65;;;12.27;;
68976;SDS011;56029;52.568;13.588;2022-10-30T09:55:46;20.37;;;12.50;;
68976;SDS011;56029;52.568;13.588;2022-10-30T10:01:26;20.98;;;12.07;;
68976;SDS011;56029;52.568;13.588;2022-10-30T10:04:00;20.67;;;11.55;;
68976;SDS011;56029;52.568;13.588;2022-10-30T10:06:27;19.20;;;11.25;;
68976;SDS011;56029;52.568;13.588;2022-10-30T10:08:54;21.07;;;11.57;;
68976;SDS011;56029;52.568;13.588;2022-10-30T10:11:31;22.40;;;12.23;;
68976;SDS011;56029;52.568;13.588;2022-10-30T10:14:08;19.95;;;11.48;;
68976;SDS011;56029;52.568;13.588;2022-10-30T10:16:39;23.02;;;11.65;;
68976;SDS011;56029;52.568;13.588;2022-10-30T10:19:15;21.47;;;11.00;;
68976;SDS011;56029;52.568;13.588;2022-10-30T10:21:45;21.48;;;11.45;;
68976;SDS011;56029;52.568;13.588;2022-10-30T10:24:17;18.90;;;11.25;;
68976;SDS011;56029;52.568;13.588;2022-10-30T10:26:47;21.48;;;11.30;;
68976;SDS011;56029;52.568;13.588;2022-10-30T10:29:24;17.83;;;10.85;;
68976;SDS011;56029;52.568;13.588;2022-10-30T10:32:18;17.17;;;11.23;;
68976;SDS011;56029;52.568;13.588;2022-10-30T10:35:09;19.70;;;11.38;;
68976;SDS011;56029;52.568;13.588;2022-10-30T10:37:58;17.17;;;10.57;;
68976;SDS011;56029;52.568;13.588;2022-10-30T10:43:24;17.77;;;11.10;;
68976;SDS011;56029;52.568;13.588;2022-10-30T10:46:08;19.80;;;10.27;;
68976;SDS011;56029;52.568;13.588;2022-10-30T10:53:52;18.92;;;9.88;;
68976;SDS011;56029;52.568;13.588;2022-10-30T10:56:21;19.48;;;9.55;;
68976;SDS011;56029;52.568;13.588;2022-10-30T10:58:53;16.93;;;9.33;;
68976;SDS011;56029;52.568;13.588;2022-10-30T11:01:28;19.20;;;9.90;;
68976;SDS011;56029;52.568;13.588;2022-10-30T11:04:11;17.15;;;9.40;;
68976;SDS011;56029;52.568;13.588;2022-10-30T11:06:42;16.15;;;9.05;;
68976;SDS011;56029;52.568;13.588;2022-10-30T11:11:46;16.77;;;9.27;;
68976;SDS011;56029;52.568;13.588;2022-10-30T11:14:19;16.88;;;9.02;;
68976;SDS011;56029;52.568;13.588;2022-10-30T11:16:58;15.88;;;8.60;;
68976;SDS011;56029;52.568;13.588;2022-10-30T11:19:37;15.63;;;8.07;;
68976;SDS011;56029;52.568;13.588;2022-10-30T11:22:03;14.77;;;7.60;;
68976;SDS011;56029;52.568;13.588;2022-10-30T11:24:54;17.85;;;7.68;;
68976;SDS011;56029;52.568;13.588;2022-10-30T11:29:55;13.07;;;7.43;;
68976;SDS011;56029;52.568;13.588;2022-10-30T11:32:25;13.63;;;6.90;;
68976;SDS011;56029;52.568;13.588;2022-10-30T11:34:59;16.98;;;7.35;;
68976;SDS011;56029;52.568;13.588;2022-10-30T11:37:31;14.02;;;7.60;;
68976;SDS011;56029;52.568;13.588;2022-10-30T11:40:05;13.23;;;6.95;;
68976;SDS011;56029;52.568;13.588;2022-10-30T11:42:38;14.57;;;7.10;;
68976;SDS011;56029;52.568;13.588;2022-10-30T11:45:16;13.88;;;6.82;;
68976;SDS011;56029;52.568;13.588;2022-10-30T11:47:45;16.92;;;6.90;;
68976;SDS011;56029;52.568;13.588;2022-10-30T11:52:45;18.35;;;7.18;;
68976;SDS011;56029;52.568;13.588;2022-10-30T11:55:14;16.97;;;6.90;;
68976;SDS011;56029;52.568;13.588;2022-10-30T11:57:41;14.00;;;6.90;;
68976;SDS011;56029;52.568;13.588;2022-10-30T12:00:15;15.00;;;6.97;;
68976;SDS011;56029;52.568;13.588;2022-10-30T12:02:47;12.60;;;6.65;;
68976;SDS011;56029;52.568;13.588;2022-10-30T12:13:17;12.75;;;6.68;;
68976;SDS011;56029;52.568;13.588;2022-10-30T12:15:46;17.90;;;6.68;;
68976;SDS011;56029;52.568;13.588;2022-10-30T12:18:20;13.23;;;6.68;;
68976;SDS011;56029;52.568;13.588;2022-10-30T12:20:51;13.90;;;6.83;;
68976;SDS011;56029;52.568;13.588;2022-10-30T12:23:20;14.27;;;6.63;;
68976;SDS011;56029;52.568;13.588;2022-10-30T12:25:50;15.13;;;6.13;;
68976;SDS011;56029;52.568;13.588;2022-10-30T12:28:21;12.45;;;6.20;;
68976;SDS011;56029;52.568;13.588;2022-10-30T12:30:53;15.20;;;6.13;;
68976;SDS011;56029;52.568;13.588;2022-10-30T12:33:28;14.03;;;6.13;;
68976;SDS011;56029;52.568;13.588;2022-10-30T12:36:00;14.55;;;6.20;;
68976;SDS011;56029;52.568;13.588;2022-10-30T12:38:32;12.65;;;6.45;;
68976;SDS011;56029;52.568;13.588;2022-10-30T12:43:56;13.98;;;6.07;;
68976;SDS011;56029;52.568;13.588;2022-10-30T12:49:26;12.82;;;6.32;;
68976;SDS011;56029;52.568;13.588;2022-10-30T12:52:44;13.40;;;5.43;;
68976;SDS011;56029;52.568;13.588;2022-10-30T12:57:27;13.05;;;5.70;;
68976;SDS011;56029;52.568;13.588;2022-10-30T13:00:14;10.80;;;5.47;;
68976;SDS011;56029;52.568;13.588;2022-10-30T13:02:55;14.55;;;6.00;;
68976;SDS011;56029;52.568;13.588;2022-10-30T13:05:50;14.63;;;5.63;;
68976;SDS011;56029;52.568;13.588;2022-10-30T13:08:21;12.80;;;5.40;;
68976;SDS011;56029;52.568;13.588;2022-10-30T13:10:53;12.63;;;5.25;;
68976;SDS011;56029;52.568;13.588;2022-10-30T13:13:35;10.77;;;5.80;;
68976;SDS011;56029;52.568;13.588;2022-10-30T13:16:05;13.32;;;5.93;;
68976;SDS011;56029;52.568;13.588;2022-10-30T13:18:36;15.23;;;5.93;;
68976;SDS011;56029;52.568;13.588;2022-10-30T13:23:59;11.40;;;5.53;;
68976;SDS011;56029;52.568;13.588;2022-10-30T13:29:44;13.02;;;5.45;;
68976;SDS011;56029;52.568;13.588;2022-10-30T13:35:12;13.47;;;6.10;;
68976;SDS011;56029;52.568;13.588;2022-10-30T13:37:52;12.23;;;6.10;;
68976;SDS011;56029;52.568;13.588;2022-10-30T13:40:30;13.85;;;6.18;;
68976;SDS011;56029;52.568;13.588;2022-10-30T13:43:06;11.95;;;6.03;;
68976;SDS011;56029;52.568;13.588;2022-10-30T13:48:24;14.73;;;5.83;;
68976;SDS011;56029;52.568;13.588;2022-10-30T13:54:09;11.95;;;5.95;;
68976;SDS011;56029;52.568;13.588;2022-10-30T13:56:43;14.70;;;5.57;;
68976;SDS011;56029;52.568;13.588;2022-10-30T14:02:23;14.97;;;5.27;;
68976;SDS011;56029;52.568;13.588;2022-10-30T14:07:56;14.23;;;5.70;;
68976;SDS011;56029;52.568;13.588;2022-10-30T14:13:15;12.48;;;5.63;;
68976;SDS011;56029;52.568;13.588;2022-10-30T14:15:57;13.77;;;5.70;;
68976;SDS011;56029;52.568;13.588;2022-10-30T14:18:43;15.57;;;5.68;;
68976;SDS011;56029;52.568;13.588;2022-10-30T14:21:28;14.45;;;5.65;;
68976;SDS011;56029;52.568;13.588;2022-10-30T14:24:02;14.73;;;5.85;;
68976;SDS011;56029;52.568;13.588;2022-10-30T14:26:29;13.05;;;5.95;;
68976;SDS011;56029;52.568;13.588;2022-10-30T14:28:55;12.60;;;5.43;;
68976;SDS011;56029;52.568;13.588;2022-10-30T14:31:34;12.90;;;5.70;;
68976;SDS011;56029;52.568;13.588;2022-10-30T14:34:00;14.55;;;5.60;;
68976;SDS011;56029;52.568;13.588;2022-10-30T14:38:58;13.52;;;5.88;;
68976;SDS011;56029;52.568;13.588;2022-10-30T14:41:48;13.80;;;5.80;;
68976;SDS011;56029;52.568;13.588;2022-10-30T14:47:52;15.33;;;6.07;;
68976;SDS011;56029;52.568;13.588;2022-10-30T14:55:34;15.20;;;5.60;;
68976;SDS011;56029;52.568;13.588;2022-10-30T14:58:24;13.80;;;7.50;;
68976;SDS011;56029;52.568;13.588;2022-10-30T15:00:53;15.23;;;6.60;;
68976;SDS011;56029;52.568;13.588;2022-10-30T15:04:00;13.75;;;6.05;;
68976;SDS011;56029;52.568;13.588;2022-10-30T15:12:01;14.98;;;6.60;;
68976;SDS011;56029;52.568;13.588;2022-10-30T15:14:53;12.57;;;6.50;;
68976;SDS011;56029;52.568;13.588;2022-10-30T15:17:30;17.35;;;6.50;;
68976;SDS011;56029;52.568;13.588;2022-10-30T15:20:01;16.20;;;6.97;;
68976;SDS011;56029;52.568;13.588;2022-10-30T15:22:31;14.93;;;7.40;;
68976;SDS011;56029;52.568;13.588;2022-10-30T15:24:58;17.58;;;7.78;;
68976;SDS011;56029;52.568;13.588;2022-10-30T15:27:25;15.77;;;7.00;;
68976;SDS011;56029;52.568;13.588;2022-10-30T15:29:55;18.30;;;8.07;;
68976;SDS011;56029;52.568;13.588;2022-10-30T15:32:25;17.55;;;8.35;;
68976;SDS011;56029;52.568;13.588;2022-10-30T15:34:58;18.20;;;8.73;;
68976;SDS011;56029;52.568;13.588;2022-10-30T15:37:27;18.38;;;10.02;;
68976;SDS011;56029;52.568;13.588;2022-10-30T15:42:42;19.55;;;10.95;;
68976;SDS011;56029;52.568;13.588;2022-10-30T15:45:19;22.27;;;10.88;;
68976;SDS011;56029;52.568;13.588;2022-10-30T15:47:47;22.60;;;12.02;;
68976;SDS011;56029;52.568;13.588;2022-10-30T15:50:21;20.63;;;11.38;;
68976;SDS011;56029;52.568;13.588;2022-10-30T15:52:46;19.30;;;10.93;;
68976;SDS011;56029;52.568;13.588;2022-10-30T15:55:13;19.98;;;11.10;;
68976;SDS011;56029;52.568;13.588;2022-10-30T15:57:50;19.33;;;10.02;;
68976;SDS011;56029;52.568;13.588;2022-10-30T16:00:22;23.00;;;11.43;;
68976;SDS011;56029;52.568;13.588;2022-10-30T16:03:03;22.35;;;10.52;;
68976;SDS011;56029;52.568;13.588;2022-10-30T16:05:40;20.63;;;10.57;;
68976;SDS011;56029;52.568;13.588;2022-10-30T16:08:11;20.00;;;10.03;;
68976;SDS011;56029;52.568;13.588;2022-10-30T16:10:40;20.73;;;10.18;;
68976;SDS011;56029;52.568;13.588;2022-10-30T16:13:09;19.45;;;9.70;;
68976;SDS011;56029;52.568;13.588;2022-10-30T16:15:41;18.08;;;9.70;;